EZS1353 LSGG-LFKC
Flight info
| Callsign | EZS1353 |
|---|---|
| Flight time | 0h 48m |
| Altitude | 31000 |
| Route | MEDAM DCT NITAM/N0397F190 M730 TOP L50 UNITA M858 LIGUR/N0390F180 |
| Aircraft | A320/M-SDE3FGHIRWY/LB1 |
Departure
| Time | 2026-04-15 15:25 |
|---|---|
| Airport | Geneva International Airport (LSGG) |
Arrival
| Time | 2026-04-15 16:14 |
|---|---|
| Airport | Calvi Sainte Catherine Airport (LFKC) |
| Time | Latitude | Longitude | Altitude | Speed | Heading |
|---|---|---|---|---|---|
| 2026-04-15 14:58 | 46.23101 | 6.10668 | 1393 ft | 0 kts | 135° |
| 2026-04-15 15:17 | 46.23102 | 6.10667 | 1393 ft | 2 kts | 135° |
| 2026-04-15 15:17 | 46.23120 | 6.10643 | 1393 ft | 4 kts | 146° |
| 2026-04-15 15:17 | 46.23141 | 6.10630 | 1393 ft | 4 kts | 197° |
| 2026-04-15 15:17 | 46.23159 | 6.10648 | 1393 ft | 3 kts | 225° |
| 2026-04-15 15:18 | 46.23161 | 6.10652 | 1402 ft | 1 kts | 225° |
| 2026-04-15 15:20 | 46.23147 | 6.10631 | 1401 ft | 6 kts | 225° |
| 2026-04-15 15:21 | 46.23105 | 6.10569 | 1393 ft | 12 kts | 225° |
| 2026-04-15 15:21 | 46.23038 | 6.10471 | 1400 ft | 14 kts | 225° |
| 2026-04-15 15:21 | 46.22972 | 6.10374 | 1395 ft | 13 kts | 225° |
| 2026-04-15 15:21 | 46.22976 | 6.10273 | 1404 ft | 11 kts | 314° |
| 2026-04-15 15:22 | 46.23026 | 6.10202 | 1398 ft | 9 kts | 315° |
| 2026-04-15 15:22 | 46.23052 | 6.10129 | 1403 ft | 9 kts | 254° |
| 2026-04-15 15:22 | 46.23001 | 6.10044 | 1395 ft | 14 kts | 226° |
| 2026-04-15 15:22 | 46.22922 | 6.09929 | 1406 ft | 18 kts | 224° |
| 2026-04-15 15:23 | 46.22834 | 6.09801 | 1399 ft | 19 kts | 225° |
| 2026-04-15 15:23 | 46.22735 | 6.09660 | 1406 ft | 21 kts | 226° |
| 2026-04-15 15:23 | 46.22632 | 6.09500 | 1406 ft | 23 kts | 225° |
| 2026-04-15 15:23 | 46.22546 | 6.09321 | 1406 ft | 19 kts | 261° |
| 2026-04-15 15:24 | 46.22568 | 6.09175 | 1417 ft | 12 kts | 314° |
| 2026-04-15 15:24 | 46.22621 | 6.09162 | 1420 ft | 7 kts | 33° |
| 2026-04-15 15:24 | 46.22660 | 6.09214 | 1418 ft | 14 kts | 45° |
| 2026-04-15 15:24 | 46.22884 | 6.09545 | 1416 ft | 84 kts | 45° |
| 2026-04-15 15:25 | 46.23450 | 6.10372 | 1395 ft | 144 kts | 45° |
| 2026-04-15 15:25 | 46.24203 | 6.11514 | 1814 ft | 158 kts | 47° |
| 2026-04-15 15:25 | 46.24700 | 6.12279 | 2334 ft | 157 kts | 47° |
| 2026-04-15 15:25 | 46.25465 | 6.13405 | 3113 ft | 157 kts | 47° |
| 2026-04-15 15:26 | 46.26233 | 6.14521 | 3830 ft | 156 kts | 45° |
| 2026-04-15 15:26 | 46.26999 | 6.15637 | 4459 ft | 157 kts | 45° |
| 2026-04-15 15:26 | 46.27795 | 6.16800 | 4918 ft | 171 kts | 45° |
| 2026-04-15 15:26 | 46.28688 | 6.18101 | 5242 ft | 193 kts | 45° |
| 2026-04-15 15:27 | 46.29684 | 6.19556 | 5559 ft | 215 kts | 45° |
| 2026-04-15 15:27 | 46.30801 | 6.21188 | 5910 ft | 240 kts | 45° |
| 2026-04-15 15:27 | 46.32033 | 6.22991 | 6357 ft | 264 kts | 45° |
| 2026-04-15 15:27 | 46.33363 | 6.24944 | 7087 ft | 276 kts | 45° |
| 2026-04-15 15:28 | 46.34722 | 6.26941 | 7982 ft | 282 kts | 45° |
| 2026-04-15 15:28 | 46.35937 | 6.29188 | 8788 ft | 289 kts | 63° |
| 2026-04-15 15:28 | 46.36445 | 6.32011 | 9613 ft | 293 kts | 87° |
| 2026-04-15 15:28 | 46.36210 | 6.34947 | 10521 ft | 297 kts | 107° |
| 2026-04-15 15:29 | 46.35279 | 6.37620 | 11379 ft | 301 kts | 128° |
| 2026-04-15 15:29 | 46.33736 | 6.39674 | 12218 ft | 304 kts | 149° |
| 2026-04-15 15:29 | 46.31739 | 6.40824 | 12672 ft | 322 kts | 171° |
| 2026-04-15 15:29 | 46.29440 | 6.40710 | 12918 ft | 344 kts | 195° |
| 2026-04-15 15:30 | 46.27251 | 6.39127 | 13151 ft | 364 kts | 218° |
| 2026-04-15 15:30 | 46.25256 | 6.36799 | 13713 ft | 372 kts | 219° |
| 2026-04-15 15:30 | 46.23229 | 6.34437 | 14385 ft | 377 kts | 217° |
| 2026-04-15 15:30 | 46.20976 | 6.32446 | 15049 ft | 383 kts | 206° |
| 2026-04-15 15:31 | 46.18462 | 6.31134 | 15697 ft | 388 kts | 194° |
| 2026-04-15 15:31 | 46.15778 | 6.30581 | 16332 ft | 393 kts | 182° |
| 2026-04-15 15:31 | 46.13029 | 6.30445 | 16962 ft | 397 kts | 182° |
| 2026-04-15 15:31 | 46.10289 | 6.30302 | 17568 ft | 402 kts | 182° |
| 2026-04-15 15:32 | 46.07446 | 6.30139 | 18181 ft | 406 kts | 182° |
| 2026-04-15 15:32 | 46.04648 | 6.29969 | 18770 ft | 410 kts | 183° |
| 2026-04-15 15:32 | 46.01747 | 6.29792 | 19383 ft | 414 kts | 183° |
| 2026-04-15 15:32 | 45.98884 | 6.29617 | 19947 ft | 418 kts | 183° |
| 2026-04-15 15:33 | 45.95964 | 6.29440 | 20499 ft | 422 kts | 182° |
| 2026-04-15 15:33 | 45.93011 | 6.29420 | 21021 ft | 427 kts | 175° |
| 2026-04-15 15:33 | 45.90068 | 6.30101 | 21531 ft | 430 kts | 165° |
| 2026-04-15 15:33 | 45.87238 | 6.31532 | 22032 ft | 433 kts | 154° |
| 2026-04-15 15:34 | 45.84610 | 6.33677 | 22508 ft | 436 kts | 144° |
| 2026-04-15 15:34 | 45.82163 | 6.36277 | 22948 ft | 439 kts | 142° |
| 2026-04-15 15:34 | 45.79704 | 6.38902 | 23397 ft | 442 kts | 142° |
| 2026-04-15 15:34 | 45.77226 | 6.41538 | 23822 ft | 445 kts | 142° |
| 2026-04-15 15:35 | 45.74732 | 6.44184 | 24206 ft | 448 kts | 142° |
| 2026-04-15 15:35 | 45.72219 | 6.46841 | 24592 ft | 451 kts | 142° |
| 2026-04-15 15:35 | 45.69717 | 6.49481 | 24950 ft | 454 kts | 142° |
| 2026-04-15 15:35 | 45.67168 | 6.52168 | 25308 ft | 457 kts | 142° |
| 2026-04-15 15:36 | 45.64600 | 6.54872 | 25661 ft | 460 kts | 142° |
| 2026-04-15 15:36 | 45.62012 | 6.57595 | 26011 ft | 463 kts | 142° |
| 2026-04-15 15:36 | 45.59398 | 6.60345 | 26356 ft | 466 kts | 142° |
| 2026-04-15 15:36 | 45.56781 | 6.63095 | 26669 ft | 468 kts | 142° |
| 2026-04-15 15:37 | 45.54153 | 6.65854 | 26944 ft | 471 kts | 142° |
| 2026-04-15 15:37 | 45.51502 | 6.68636 | 27237 ft | 475 kts | 142° |
| 2026-04-15 15:37 | 45.48831 | 6.71435 | 27526 ft | 477 kts | 142° |
| 2026-04-15 15:37 | 45.46149 | 6.74241 | 27806 ft | 479 kts | 142° |
| 2026-04-15 15:38 | 45.43444 | 6.77045 | 28065 ft | 483 kts | 142° |
| 2026-04-15 15:38 | 45.40696 | 6.79831 | 28334 ft | 486 kts | 142° |
| 2026-04-15 15:38 | 45.37924 | 6.82599 | 28541 ft | 489 kts | 143° |
| 2026-04-15 15:38 | 45.35119 | 6.85377 | 28801 ft | 490 kts | 143° |
| 2026-04-15 15:39 | 45.32310 | 6.88152 | 29027 ft | 493 kts | 142° |
| 2026-04-15 15:39 | 45.29526 | 6.90908 | 29198 ft | 494 kts | 142° |
| 2026-04-15 15:39 | 45.26707 | 6.93807 | 29437 ft | 494 kts | 138° |
| 2026-04-15 15:39 | 45.24183 | 6.97085 | 29708 ft | 491 kts | 132° |
| 2026-04-15 15:40 | 45.21773 | 7.00435 | 29952 ft | 491 kts | 132° |
| 2026-04-15 15:40 | 45.19325 | 7.03825 | 30151 ft | 492 kts | 132° |
| 2026-04-15 15:40 | 45.16872 | 7.07205 | 30399 ft | 492 kts | 132° |
| 2026-04-15 15:40 | 45.14416 | 7.10570 | 30610 ft | 492 kts | 132° |
| 2026-04-15 15:41 | 45.11950 | 7.13941 | 30896 ft | 491 kts | 132° |
| 2026-04-15 15:41 | 45.09495 | 7.17298 | 31098 ft | 491 kts | 132° |
| 2026-04-15 15:41 | 45.04604 | 7.23977 | 31133 ft | 487 kts | 132° |
| 2026-04-15 15:42 | 44.99962 | 7.30888 | 31137 ft | 480 kts | 121° |
| 2026-04-15 15:42 | 44.96890 | 7.39077 | 31140 ft | 467 kts | 103° |
| 2026-04-15 15:43 | 44.95671 | 7.47918 | 31139 ft | 456 kts | 90° |
| 2026-04-15 15:43 | 44.95040 | 7.56754 | 31139 ft | 455 kts | 90° |
| 2026-04-15 15:44 | 44.94362 | 7.65639 | 31133 ft | 455 kts | 90° |
| 2026-04-15 15:44 | 44.93635 | 7.74499 | 31130 ft | 455 kts | 91° |
| 2026-04-15 15:45 | 44.92062 | 7.83226 | 31128 ft | 468 kts | 109° |
| 2026-04-15 15:45 | 44.88414 | 7.90965 | 31122 ft | 483 kts | 129° |
| 2026-04-15 15:46 | 44.83344 | 7.97295 | 31123 ft | 488 kts | 135° |
| 2026-04-15 15:46 | 44.78183 | 8.03495 | 31125 ft | 488 kts | 134° |
| 2026-04-15 15:47 | 44.73060 | 8.09643 | 31128 ft | 486 kts | 134° |
| 2026-04-15 15:47 | 44.67908 | 8.15819 | 31127 ft | 486 kts | 134° |
| 2026-04-15 15:48 | 44.62784 | 8.21968 | 31129 ft | 484 kts | 134° |
| 2026-04-15 15:48 | 44.57655 | 8.28104 | 31115 ft | 484 kts | 134° |
| 2026-04-15 15:49 | 44.52533 | 8.34223 | 31100 ft | 484 kts | 134° |
| 2026-04-15 15:49 | 44.47394 | 8.40352 | 31082 ft | 486 kts | 134° |
| 2026-04-15 15:50 | 44.42243 | 8.46465 | 31065 ft | 486 kts | 135° |
| 2026-04-15 15:50 | 44.37114 | 8.52528 | 31077 ft | 485 kts | 134° |
| 2026-04-15 15:51 | 44.31950 | 8.58621 | 31091 ft | 485 kts | 134° |
| 2026-04-15 15:51 | 44.26787 | 8.64716 | 31093 ft | 486 kts | 135° |
| 2026-04-15 15:52 | 44.21618 | 8.70782 | 31096 ft | 485 kts | 135° |
| 2026-04-15 15:52 | 44.16456 | 8.76838 | 31097 ft | 484 kts | 135° |
| 2026-04-15 15:53 | 44.11315 | 8.82874 | 30782 ft | 483 kts | 135° |
| 2026-04-15 15:53 | 44.08751 | 8.85883 | 30538 ft | 482 kts | 136° |
| 2026-04-15 15:53 | 44.06184 | 8.88882 | 30281 ft | 482 kts | 136° |
| 2026-04-15 15:54 | 44.03610 | 8.91876 | 30030 ft | 482 kts | 136° |
| 2026-04-15 15:54 | 44.01038 | 8.94858 | 29773 ft | 481 kts | 137° |
| 2026-04-15 15:54 | 43.98331 | 8.97509 | 29523 ft | 485 kts | 147° |
| 2026-04-15 15:54 | 43.95313 | 8.99584 | 28969 ft | 483 kts | 156° |
| 2026-04-15 15:55 | 43.92083 | 9.00977 | 27665 ft | 489 kts | 167° |
| 2026-04-15 15:55 | 43.88702 | 9.01576 | 26357 ft | 492 kts | 177° |
| 2026-04-15 15:55 | 43.85290 | 9.01418 | 25055 ft | 491 kts | 185° |
| 2026-04-15 15:55 | 43.81898 | 9.00981 | 23879 ft | 486 kts | 185° |
| 2026-04-15 15:56 | 43.78571 | 9.00577 | 23015 ft | 475 kts | 185° |
| 2026-04-15 15:56 | 43.75305 | 9.00197 | 22163 ft | 467 kts | 184° |
| 2026-04-15 15:56 | 43.72090 | 8.99831 | 21358 ft | 460 kts | 184° |
| 2026-04-15 15:56 | 43.68936 | 8.99471 | 20865 ft | 447 kts | 184° |
| 2026-04-15 15:57 | 43.65867 | 8.99117 | 20117 ft | 441 kts | 184° |
| 2026-04-15 15:57 | 43.62821 | 8.98761 | 19353 ft | 437 kts | 184° |
| 2026-04-15 15:57 | 43.59800 | 8.98404 | 18604 ft | 433 kts | 184° |
| 2026-04-15 15:57 | 43.56810 | 8.98046 | 17890 ft | 429 kts | 184° |
| 2026-04-15 15:58 | 43.53854 | 8.97693 | 17217 ft | 424 kts | 184° |
| 2026-04-15 15:58 | 43.50927 | 8.97340 | 16584 ft | 419 kts | 184° |
| 2026-04-15 15:58 | 43.48040 | 8.96988 | 15970 ft | 414 kts | 184° |
| 2026-04-15 15:58 | 43.45190 | 8.96639 | 15377 ft | 409 kts | 184° |
| 2026-04-15 15:59 | 43.42365 | 8.96291 | 14796 ft | 404 kts | 184° |
| 2026-04-15 15:59 | 43.39612 | 8.95948 | 14218 ft | 400 kts | 184° |
| 2026-04-15 15:59 | 43.36843 | 8.95606 | 13426 ft | 402 kts | 184° |
| 2026-04-15 15:59 | 43.34052 | 8.95279 | 12346 ft | 398 kts | 184° |
| 2026-04-15 16:00 | 43.31348 | 8.94976 | 11642 ft | 378 kts | 183° |
| 2026-04-15 16:00 | 43.28832 | 8.94698 | 11404 ft | 348 kts | 183° |
| 2026-04-15 16:00 | 43.26520 | 8.94441 | 11264 ft | 320 kts | 183° |
| 2026-04-15 16:00 | 43.24354 | 8.94198 | 10820 ft | 306 kts | 184° |
| 2026-04-15 16:01 | 43.22280 | 8.93690 | 10409 ft | 300 kts | 195° |
| 2026-04-15 16:01 | 43.20306 | 8.92714 | 10163 ft | 302 kts | 201° |
| 2026-04-15 16:01 | 43.18363 | 8.91650 | 9952 ft | 300 kts | 201° |
| 2026-04-15 16:01 | 43.16423 | 8.90590 | 9847 ft | 300 kts | 200° |
| 2026-04-15 16:02 | 43.14483 | 8.89536 | 9734 ft | 300 kts | 200° |
| 2026-04-15 16:02 | 43.12542 | 8.88482 | 9599 ft | 300 kts | 200° |
| 2026-04-15 16:02 | 43.10601 | 8.87429 | 9480 ft | 299 kts | 200° |
| 2026-04-15 16:02 | 43.08667 | 8.86382 | 9213 ft | 298 kts | 200° |
| 2026-04-15 16:03 | 43.06739 | 8.85339 | 8879 ft | 297 kts | 200° |
| 2026-04-15 16:03 | 43.04826 | 8.84303 | 8534 ft | 295 kts | 200° |
| 2026-04-15 16:03 | 43.02921 | 8.83271 | 8186 ft | 294 kts | 200° |
| 2026-04-15 16:03 | 43.01048 | 8.82255 | 7871 ft | 292 kts | 201° |
| 2026-04-15 16:04 | 42.99162 | 8.81233 | 7520 ft | 291 kts | 201° |
| 2026-04-15 16:04 | 42.97282 | 8.80215 | 7183 ft | 289 kts | 201° |
| 2026-04-15 16:04 | 42.95380 | 8.79363 | 6848 ft | 287 kts | 190° |
| 2026-04-15 16:04 | 42.93405 | 8.79150 | 6523 ft | 284 kts | 178° |
| 2026-04-15 16:05 | 42.91436 | 8.79178 | 6192 ft | 283 kts | 178° |
| 2026-04-15 16:05 | 42.89471 | 8.79199 | 5874 ft | 282 kts | 178° |
| 2026-04-15 16:05 | 42.87504 | 8.78968 | 5190 ft | 290 kts | 191° |
| 2026-04-15 16:05 | 42.85503 | 8.78330 | 4407 ft | 300 kts | 193° |
| 2026-04-15 16:06 | 42.83430 | 8.77720 | 3636 ft | 306 kts | 190° |
| 2026-04-15 16:06 | 42.81401 | 8.77317 | 3367 ft | 281 kts | 184° |
| 2026-04-15 16:06 | 42.79535 | 8.77390 | 3136 ft | 259 kts | 175° |
| 2026-04-15 16:06 | 42.77797 | 8.77568 | 2873 ft | 241 kts | 175° |
| 2026-04-15 16:07 | 42.76190 | 8.77729 | 2703 ft | 222 kts | 174° |
| 2026-04-15 16:07 | 42.74670 | 8.77881 | 2619 ft | 217 kts | 174° |
| 2026-04-15 16:07 | 42.71703 | 8.78175 | 2398 ft | 213 kts | 174° |
| 2026-04-15 16:08 | 42.70235 | 8.78327 | 2262 ft | 211 kts | 174° |
| 2026-04-15 16:08 | 42.68780 | 8.78477 | 2129 ft | 209 kts | 174° |
| 2026-04-15 16:08 | 42.67335 | 8.78624 | 2001 ft | 207 kts | 175° |
| 2026-04-15 16:08 | 42.65892 | 8.78773 | 1858 ft | 206 kts | 175° |
| 2026-04-15 16:09 | 42.64480 | 8.78918 | 1726 ft | 201 kts | 174° |
| 2026-04-15 16:09 | 42.63093 | 8.79061 | 1616 ft | 199 kts | 174° |
| 2026-04-15 16:09 | 42.61714 | 8.79204 | 1523 ft | 198 kts | 174° |
| 2026-04-15 16:09 | 42.60341 | 8.79342 | 1505 ft | 198 kts | 176° |
| 2026-04-15 16:10 | 42.58959 | 8.79349 | 1507 ft | 199 kts | 181° |
| 2026-04-15 16:10 | 42.57591 | 8.79156 | 1519 ft | 194 kts | 191° |
| 2026-04-15 16:10 | 42.56332 | 8.78778 | 1522 ft | 177 kts | 193° |
| 2026-04-15 16:10 | 42.55195 | 8.78404 | 1496 ft | 159 kts | 193° |
| 2026-04-15 16:11 | 42.54152 | 8.78055 | 1519 ft | 152 kts | 193° |
| 2026-04-15 16:11 | 42.53137 | 8.77712 | 1515 ft | 149 kts | 194° |
| 2026-04-15 16:11 | 42.52133 | 8.77379 | 1510 ft | 148 kts | 190° |
| 2026-04-15 16:11 | 42.51103 | 8.77190 | 1350 ft | 149 kts | 185° |
| 2026-04-15 16:12 | 42.50070 | 8.77055 | 1158 ft | 149 kts | 184° |
| 2026-04-15 16:12 | 42.49089 | 8.77205 | 1052 ft | 144 kts | 146° |
| 2026-04-15 16:12 | 42.48580 | 8.78253 | 999 ft | 135 kts | 89° |
| 2026-04-15 16:12 | 42.48931 | 8.79322 | 879 ft | 128 kts | 32° |
| 2026-04-15 16:13 | 42.49799 | 8.79417 | 658 ft | 133 kts | 348° |
| 2026-04-15 16:13 | 42.50701 | 8.79310 | 485 ft | 129 kts | 359° |
| 2026-04-15 16:13 | 42.51590 | 8.79300 | 352 ft | 128 kts | 1° |
| 2026-04-15 16:13 | 42.52479 | 8.79299 | 209 ft | 125 kts | 1° |
| 2026-04-15 16:14 | 42.53167 | 8.79298 | 139 ft | 60 kts | 359° |
| 2026-04-15 16:14 | 42.53458 | 8.79298 | 120 ft | 40 kts | 0° |
| 2026-04-15 16:14 | 42.53735 | 8.79297 | 104 ft | 40 kts | 360° |
| 2026-04-15 16:14 | 42.53998 | 8.79296 | 85 ft | 20 kts | 359° |
| 2026-04-15 16:15 | 42.54088 | 8.79336 | 79 ft | 8 kts | 25° |
| 2026-04-15 16:15 | 42.54101 | 8.79311 | 78 ft | 5 kts | 268° |
| 2026-04-15 16:15 | 42.54081 | 8.79289 | 82 ft | 4 kts | 177° |
| 2026-04-15 16:15 | 42.54046 | 8.79291 | 82 ft | 7 kts | 178° |
| 2026-04-15 16:16 | 42.53982 | 8.79294 | 86 ft | 12 kts | 179° |
| 2026-04-15 16:16 | 42.53880 | 8.79295 | 92 ft | 17 kts | 179° |
| 2026-04-15 16:16 | 42.53746 | 8.79296 | 103 ft | 21 kts | 180° |
| 2026-04-15 16:16 | 42.53587 | 8.79298 | 112 ft | 26 kts | 179° |
| 2026-04-15 16:17 | 42.53393 | 8.79301 | 125 ft | 29 kts | 180° |
| 2026-04-15 16:17 | 42.53178 | 8.79299 | 138 ft | 33 kts | 180° |
| 2026-04-15 16:17 | 42.52942 | 8.79302 | 158 ft | 34 kts | 179° |
| 2026-04-15 16:17 | 42.52712 | 8.79297 | 174 ft | 31 kts | 181° |
| 2026-04-15 16:18 | 42.52517 | 8.79297 | 194 ft | 25 kts | 179° |
| 2026-04-15 16:18 | 42.52429 | 8.79233 | 193 ft | 13 kts | 269° |
| 2026-04-15 16:18 | 42.52437 | 8.79151 | 193 ft | 7 kts | 296° |
| 2026-04-15 16:18 | 42.52465 | 8.79092 | 192 ft | 8 kts | 300° |
| 2026-04-15 16:19 | 42.52474 | 8.79070 | 198 ft | 0 kts | 299° |
| 2026-04-15 16:34 | 42.52470 | 8.79078 | 192 ft | 0 kts | 300° |